sensor_id;sensor_type;location;lat;lon;timestamp;pressure;altitude;pressure_sealevel;temperature;humidity
84990;BME280;75307;53.836;10.476;2024-03-29T00:00:49;99247.78;;;5.83;78.91
84990;BME280;75307;53.836;10.476;2024-03-29T00:02:49;99244.03;;;5.90;79.51
84990;BME280;75307;53.836;10.476;2024-03-29T00:04:50;99245.00;;;5.88;79.00
84990;BME280;75307;53.836;10.476;2024-03-29T00:06:51;99243.31;;;5.87;79.10
84990;BME280;75307;53.836;10.476;2024-03-29T00:08:51;99237.03;;;5.93;79.41
84990;BME280;75307;53.836;10.476;2024-03-29T00:10:52;99250.09;;;5.91;79.35
84990;BME280;75307;53.836;10.476;2024-03-29T00:12:54;99249.28;;;5.89;79.10
84990;BME280;75307;53.836;10.476;2024-03-29T00:14:55;99251.06;;;5.88;79.15
84990;BME280;75307;53.836;10.476;2024-03-29T00:16:56;99258.03;;;5.88;78.85
84990;BME280;75307;53.836;10.476;2024-03-29T00:18:57;99246.75;;;5.87;79.07
84990;BME280;75307;53.836;10.476;2024-03-29T00:20:58;99258.88;;;5.88;79.36
84990;BME280;75307;53.836;10.476;2024-03-29T00:22:58;99257.13;;;5.89;79.42
84990;BME280;75307;53.836;10.476;2024-03-29T00:24:59;99251.22;;;5.84;78.66
84990;BME280;75307;53.836;10.476;2024-03-29T00:27:00;99246.25;;;5.78;79.09
84990;BME280;75307;53.836;10.476;2024-03-29T00:29:03;99249.72;;;5.78;79.49
84990;BME280;75307;53.836;10.476;2024-03-29T00:31:03;99247.91;;;5.80;79.34
84990;BME280;75307;53.836;10.476;2024-03-29T00:33:04;99250.69;;;5.76;78.86
84990;BME280;75307;53.836;10.476;2024-03-29T00:35:06;99251.88;;;5.67;79.10
84990;BME280;75307;53.836;10.476;2024-03-29T00:37:06;99257.09;;;5.67;79.50
84990;BME280;75307;53.836;10.476;2024-03-29T00:39:07;99246.66;;;5.67;79.65
84990;BME280;75307;53.836;10.476;2024-03-29T00:41:08;99241.28;;;5.72;79.44
84990;BME280;75307;53.836;10.476;2024-03-29T00:43:09;99248.34;;;5.68;78.80
84990;BME280;75307;53.836;10.476;2024-03-29T00:45:11;99240.59;;;5.66;79.38
84990;BME280;75307;53.836;10.476;2024-03-29T00:47:11;99256.34;;;5.63;79.10
84990;BME280;75307;53.836;10.476;2024-03-29T00:49:12;99250.22;;;5.64;78.84
84990;BME280;75307;53.836;10.476;2024-03-29T00:51:13;99259.03;;;5.62;78.76
84990;BME280;75307;53.836;10.476;2024-03-29T00:53:14;99260.81;;;5.60;78.58
84990;BME280;75307;53.836;10.476;2024-03-29T00:55:14;99255.75;;;5.57;78.93
84990;BME280;75307;53.836;10.476;2024-03-29T00:57:15;99258.28;;;5.58;79.14
84990;BME280;75307;53.836;10.476;2024-03-29T00:59:16;99256.00;;;5.49;79.32
84990;BME280;75307;53.836;10.476;2024-03-29T01:01:19;99266.72;;;5.42;79.39
84990;BME280;75307;53.836;10.476;2024-03-29T01:03:19;99258.91;;;5.42;79.64
84990;BME280;75307;53.836;10.476;2024-03-29T01:05:20;99256.16;;;5.45;79.08
84990;BME280;75307;53.836;10.476;2024-03-29T01:07:21;99256.50;;;5.35;79.12
84990;BME280;75307;53.836;10.476;2024-03-29T01:09:22;99257.63;;;5.28;78.96
84990;BME280;75307;53.836;10.476;2024-03-29T01:11:23;99268.09;;;5.27;79.29
84990;BME280;75307;53.836;10.476;2024-03-29T01:13:23;99266.47;;;5.24;79.71
84990;BME280;75307;53.836;10.476;2024-03-29T01:15:24;99261.25;;;5.24;78.96
84990;BME280;75307;53.836;10.476;2024-03-29T01:17:26;99263.06;;;5.22;79.65
84990;BME280;75307;53.836;10.476;2024-03-29T01:19:27;99265.69;;;5.22;79.43
84990;BME280;75307;53.836;10.476;2024-03-29T01:21:28;99269.31;;;5.17;79.35
84990;BME280;75307;53.836;10.476;2024-03-29T01:23:29;99262.41;;;5.15;79.64
84990;BME280;75307;53.836;10.476;2024-03-29T01:25:29;99264.09;;;5.18;79.11
84990;BME280;75307;53.836;10.476;2024-03-29T01:27:30;99264.19;;;5.15;79.42
84990;BME280;75307;53.836;10.476;2024-03-29T01:29:31;99255.59;;;5.11;79.55
84990;BME280;75307;53.836;10.476;2024-03-29T01:31:32;99265.25;;;5.09;79.17
84990;BME280;75307;53.836;10.476;2024-03-29T01:33:34;99264.50;;;5.06;79.10
84990;BME280;75307;53.836;10.476;2024-03-29T01:35:34;99257.66;;;5.03;79.27
84990;BME280;75307;53.836;10.476;2024-03-29T01:37:35;99264.81;;;4.97;79.64
84990;BME280;75307;53.836;10.476;2024-03-29T01:39:36;99262.88;;;5.02;79.21
84990;BME280;75307;53.836;10.476;2024-03-29T01:41:36;99263.00;;;4.99;79.09
84990;BME280;75307;53.836;10.476;2024-03-29T01:43:37;99261.34;;;4.96;79.24
84990;BME280;75307;53.836;10.476;2024-03-29T01:45:39;99262.31;;;4.94;79.71
84990;BME280;75307;53.836;10.476;2024-03-29T01:47:41;99257.97;;;4.94;79.27
84990;BME280;75307;53.836;10.476;2024-03-29T01:49:44;99261.50;;;4.92;79.24
84990;BME280;75307;53.836;10.476;2024-03-29T01:51:46;99261.50;;;4.92;79.18
84990;BME280;75307;53.836;10.476;2024-03-29T01:53:49;99254.84;;;4.83;79.54
84990;BME280;75307;53.836;10.476;2024-03-29T01:55:51;99252.25;;;4.83;79.54
84990;BME280;75307;53.836;10.476;2024-03-29T01:57:55;99253.16;;;4.82;79.36
84990;BME280;75307;53.836;10.476;2024-03-29T01:59:57;99268.88;;;4.79;79.39
84990;BME280;75307;53.836;10.476;2024-03-29T02:01:59;99264.72;;;4.73;79.93
84990;BME280;75307;53.836;10.476;2024-03-29T02:04:01;99264.84;;;4.70;79.40
84990;BME280;75307;53.836;10.476;2024-03-29T02:06:03;99267.63;;;4.64;79.36
84990;BME280;75307;53.836;10.476;2024-03-29T02:08:07;99265.00;;;4.66;79.56
84990;BME280;75307;53.836;10.476;2024-03-29T02:10:10;99270.22;;;4.64;79.52
84990;BME280;75307;53.836;10.476;2024-03-29T02:12:13;99263.53;;;4.57;79.38
84990;BME280;75307;53.836;10.476;2024-03-29T02:14:15;99261.84;;;4.56;79.74
84990;BME280;75307;53.836;10.476;2024-03-29T02:16:16;99264.63;;;4.50;79.51
84990;BME280;75307;53.836;10.476;2024-03-29T02:18:18;99270.13;;;4.41;79.91
84990;BME280;75307;53.836;10.476;2024-03-29T02:20:20;99265.13;;;4.34;79.94
84990;BME280;75307;53.836;10.476;2024-03-29T02:22:24;99279.25;;;4.26;80.21
84990;BME280;75307;53.836;10.476;2024-03-29T02:24:27;99277.81;;;4.17;80.31
84990;BME280;75307;53.836;10.476;2024-03-29T02:26:29;99270.88;;;4.16;80.32
84990;BME280;75307;53.836;10.476;2024-03-29T02:28:33;99283.88;;;4.18;80.12
84990;BME280;75307;53.836;10.476;2024-03-29T02:30:35;99288.03;;;4.23;80.21
84990;BME280;75307;53.836;10.476;2024-03-29T02:32:35;99282.81;;;4.23;80.10
84990;BME280;75307;53.836;10.476;2024-03-29T02:34:37;99293.41;;;4.17;80.10
84990;BME280;75307;53.836;10.476;2024-03-29T02:36:39;99300.41;;;4.15;80.26
84990;BME280;75307;53.836;10.476;2024-03-29T02:38:41;99294.56;;;4.07;80.29
84990;BME280;75307;53.836;10.476;2024-03-29T02:40:44;99295.47;;;4.06;80.19
84990;BME280;75307;53.836;10.476;2024-03-29T02:42:47;99293.69;;;4.08;80.20
84990;BME280;75307;53.836;10.476;2024-03-29T02:44:49;99293.72;;;4.06;80.10
84990;BME280;75307;53.836;10.476;2024-03-29T02:46:50;99283.56;;;3.99;80.07
84990;BME280;75307;53.836;10.476;2024-03-29T02:48:52;99299.88;;;4.04;80.27
84990;BME280;75307;53.836;10.476;2024-03-29T02:50:53;99300.81;;;4.01;80.21
84990;BME280;75307;53.836;10.476;2024-03-29T02:52:54;99294.81;;;3.99;80.30
84990;BME280;75307;53.836;10.476;2024-03-29T02:54:55;99296.44;;;4.03;80.28
84990;BME280;75307;53.836;10.476;2024-03-29T02:56:58;99302.38;;;4.07;80.15
84990;BME280;75307;53.836;10.476;2024-03-29T02:58:59;99308.97;;;4.19;79.83
84990;BME280;75307;53.836;10.476;2024-03-29T03:01:05;99298.50;;;4.20;79.46
84990;BME280;75307;53.836;10.476;2024-03-29T03:03:06;99307.28;;;4.16;79.70
84990;BME280;75307;53.836;10.476;2024-03-29T03:05:08;99300.66;;;4.06;79.96
84990;BME280;75307;53.836;10.476;2024-03-29T03:07:09;99305.22;;;3.99;80.25
84990;BME280;75307;53.836;10.476;2024-03-29T03:09:28;99302.56;;;4.01;79.98
84990;BME280;75307;53.836;10.476;2024-03-29T03:11:47;99305.97;;;4.03;80.05
84990;BME280;75307;53.836;10.476;2024-03-29T03:13:50;99299.97;;;4.01;79.91
84990;BME280;75307;53.836;10.476;2024-03-29T03:15:52;99291.31;;;4.00;79.90
84990;BME280;75307;53.836;10.476;2024-03-29T03:17:52;99290.66;;;3.94;80.15
84990;BME280;75307;53.836;10.476;2024-03-29T03:19:54;99293.34;;;3.91;80.18
84990;BME280;75307;53.836;10.476;2024-03-29T03:21:55;99291.50;;;3.94;80.09
84990;BME280;75307;53.836;10.476;2024-03-29T03:23:56;99286.88;;;4.04;80.02
84990;BME280;75307;53.836;10.476;2024-03-29T03:25:58;99285.78;;;4.11;79.91
84990;BME280;75307;53.836;10.476;2024-03-29T03:28:00;99287.31;;;4.18;79.61
84990;BME280;75307;53.836;10.476;2024-03-29T03:30:02;99278.53;;;4.22;79.66
84990;BME280;75307;53.836;10.476;2024-03-29T03:32:05;99272.47;;;4.22;79.57
84990;BME280;75307;53.836;10.476;2024-03-29T03:34:06;99267.16;;;4.25;79.22
84990;BME280;75307;53.836;10.476;2024-03-29T03:36:07;99269.81;;;4.23;79.35
84990;BME280;75307;53.836;10.476;2024-03-29T03:38:09;99265.53;;;4.21;79.34
84990;BME280;75307;53.836;10.476;2024-03-29T03:40:10;99257.09;;;4.14;79.55
84990;BME280;75307;53.836;10.476;2024-03-29T03:42:11;99266.94;;;4.04;79.44
84990;BME280;75307;53.836;10.476;2024-03-29T03:44:12;99260.97;;;4.01;79.23
84990;BME280;75307;53.836;10.476;2024-03-29T03:46:15;99263.34;;;4.08;79.24
84990;BME280;75307;53.836;10.476;2024-03-29T03:48:16;99269.19;;;4.15;79.36
84990;BME280;75307;53.836;10.476;2024-03-29T03:50:17;99274.41;;;4.15;79.37
84990;BME280;75307;53.836;10.476;2024-03-29T03:52:18;99279.88;;;4.06;79.40
84990;BME280;75307;53.836;10.476;2024-03-29T03:54:19;99288.50;;;4.08;79.56
84990;BME280;75307;53.836;10.476;2024-03-29T03:56:20;99287.50;;;4.12;79.39
84990;BME280;75307;53.836;10.476;2024-03-29T03:58:21;99295.47;;;4.06;79.44
84990;BME280;75307;53.836;10.476;2024-03-29T04:00:23;99282.22;;;3.85;79.71
84990;BME280;75307;53.836;10.476;2024-03-29T04:02:25;99286.84;;;3.76;79.98
84990;BME280;75307;53.836;10.476;2024-03-29T04:04:26;99296.13;;;3.84;79.94
84990;BME280;75307;53.836;10.476;2024-03-29T04:06:27;99297.03;;;3.83;79.81
84990;BME280;75307;53.836;10.476;2024-03-29T04:08:29;99295.44;;;3.78;79.88
84990;BME280;75307;53.836;10.476;2024-03-29T04:10:29;99298.06;;;3.76;80.16
84990;BME280;75307;53.836;10.476;2024-03-29T04:12:31;99316.34;;;3.73;80.02
84990;BME280;75307;53.836;10.476;2024-03-29T04:14:32;99311.47;;;3.63;79.89
84990;BME280;75307;53.836;10.476;2024-03-29T04:16:33;99313.94;;;3.67;80.18
84990;BME280;75307;53.836;10.476;2024-03-29T04:18:35;99316.41;;;3.72;79.86
84990;BME280;75307;53.836;10.476;2024-03-29T04:20:37;99317.34;;;3.69;79.83
84990;BME280;75307;53.836;10.476;2024-03-29T04:22:38;99318.91;;;3.75;80.26
84990;BME280;75307;53.836;10.476;2024-03-29T04:24:39;99311.75;;;3.83;79.87
84990;BME280;75307;53.836;10.476;2024-03-29T04:26:40;99303.84;;;3.86;79.62
84990;BME280;75307;53.836;10.476;2024-03-29T04:28:44;99304.06;;;3.80;79.68
84990;BME280;75307;53.836;10.476;2024-03-29T04:30:51;99310.94;;;3.81;79.65
84990;BME280;75307;53.836;10.476;2024-03-29T04:32:53;99306.59;;;3.81;79.72
84990;BME280;75307;53.836;10.476;2024-03-29T04:34:55;99309.44;;;3.72;79.78
84990;BME280;75307;53.836;10.476;2024-03-29T04:36:57;99303.78;;;3.58;80.00
84990;BME280;75307;53.836;10.476;2024-03-29T04:38:58;99303.97;;;3.52;80.15
84990;BME280;75307;53.836;10.476;2024-03-29T04:41:00;99298.06;;;3.47;80.38
84990;BME280;75307;53.836;10.476;2024-03-29T04:43:02;99285.38;;;3.34;80.51
84990;BME280;75307;53.836;10.476;2024-03-29T04:45:03;99298.44;;;3.33;80.85
84990;BME280;75307;53.836;10.476;2024-03-29T04:47:06;99292.75;;;3.19;80.68
84990;BME280;75307;53.836;10.476;2024-03-29T04:49:08;99281.75;;;3.09;80.51
84990;BME280;75307;53.836;10.476;2024-03-29T04:51:11;99293.09;;;3.05;81.12
84990;BME280;75307;53.836;10.476;2024-03-29T04:53:12;99302.81;;;2.98;80.71
84990;BME280;75307;53.836;10.476;2024-03-29T04:55:14;99303.81;;;2.93;81.68
84990;BME280;75307;53.836;10.476;2024-03-29T04:57:16;99288.25;;;2.93;81.33
84990;BME280;75307;53.836;10.476;2024-03-29T04:59:18;99294.13;;;2.99;81.08
84990;BME280;75307;53.836;10.476;2024-03-29T05:01:21;99296.56;;;3.05;81.33
84990;BME280;75307;53.836;10.476;2024-03-29T05:03:23;99288.75;;;3.07;81.21
84990;BME280;75307;53.836;10.476;2024-03-29T05:05:25;99283.78;;;2.98;81.08
84990;BME280;75307;53.836;10.476;2024-03-29T05:07:27;99308.63;;;3.08;81.15
84990;BME280;75307;53.836;10.476;2024-03-29T05:09:28;99303.78;;;3.27;80.78
84990;BME280;75307;53.836;10.476;2024-03-29T05:11:30;99303.63;;;3.33;80.41
84990;BME280;75307;53.836;10.476;2024-03-29T05:13:31;99299.81;;;3.46;80.45
84990;BME280;75307;53.836;10.476;2024-03-29T05:15:33;99314.53;;;3.46;80.12
84990;BME280;75307;53.836;10.476;2024-03-29T05:17:34;99313.38;;;3.56;80.26
84990;BME280;75307;53.836;10.476;2024-03-29T05:19:37;99326.13;;;3.65;79.97
84990;BME280;75307;53.836;10.476;2024-03-29T05:21:39;99323.09;;;3.80;79.69
84990;BME280;75307;53.836;10.476;2024-03-29T05:23:42;99320.44;;;3.82;79.53
84990;BME280;75307;53.836;10.476;2024-03-29T05:25:44;99317.00;;;3.81;79.61
84990;BME280;75307;53.836;10.476;2024-03-29T05:27:45;99315.34;;;3.79;79.78
84990;BME280;75307;53.836;10.476;2024-03-29T05:29:46;99324.72;;;3.84;79.72
84990;BME280;75307;53.836;10.476;2024-03-29T05:31:48;99324.53;;;3.91;79.41
84990;BME280;75307;53.836;10.476;2024-03-29T05:33:51;99331.22;;;3.99;79.70
84990;BME280;75307;53.836;10.476;2024-03-29T05:35:51;99333.75;;;4.01;79.30
84990;BME280;75307;53.836;10.476;2024-03-29T05:37:53;99335.19;;;4.11;79.31
84990;BME280;75307;53.836;10.476;2024-03-29T05:39:56;99329.69;;;4.22;78.86
84990;BME280;75307;53.836;10.476;2024-03-29T05:42:00;99324.50;;;4.22;79.01
84990;BME280;75307;53.836;10.476;2024-03-29T05:44:03;99335.03;;;4.17;78.87
84990;BME280;75307;53.836;10.476;2024-03-29T05:46:06;99345.13;;;4.26;78.79
84990;BME280;75307;53.836;10.476;2024-03-29T05:48:07;99345.00;;;4.31;79.00
84990;BME280;75307;53.836;10.476;2024-03-29T05:50:10;99358.81;;;4.33;78.74
84990;BME280;75307;53.836;10.476;2024-03-29T05:52:11;99351.78;;;4.36;78.61
84990;BME280;75307;53.836;10.476;2024-03-29T05:54:14;99357.78;;;4.38;78.69
84990;BME280;75307;53.836;10.476;2024-03-29T05:56:17;99351.53;;;4.44;78.57
84990;BME280;75307;53.836;10.476;2024-03-29T05:58:18;99344.56;;;4.45;78.58
84990;BME280;75307;53.836;10.476;2024-03-29T06:00:21;99346.31;;;4.46;78.68
84990;BME280;75307;53.836;10.476;2024-03-29T06:02:23;99351.50;;;4.46;78.72
84990;BME280;75307;53.836;10.476;2024-03-29T06:04:24;99359.25;;;4.47;78.52
84990;BME280;75307;53.836;10.476;2024-03-29T06:06:32;99348.91;;;4.46;78.65
84990;BME280;75307;53.836;10.476;2024-03-29T06:08:34;99350.34;;;4.54;78.42
84990;BME280;75307;53.836;10.476;2024-03-29T06:10:35;99354.53;;;4.60;78.37
84990;BME280;75307;53.836;10.476;2024-03-29T06:12:38;99346.53;;;4.64;78.51
84990;BME280;75307;53.836;10.476;2024-03-29T06:14:40;99349.00;;;4.69;78.43
84990;BME280;75307;53.836;10.476;2024-03-29T06:16:59;99348.97;;;4.71;78.36
84990;BME280;75307;53.836;10.476;2024-03-29T06:19:19;99346.13;;;4.78;78.15
84990;BME280;75307;53.836;10.476;2024-03-29T06:21:20;99359.88;;;4.82;78.23
84990;BME280;75307;53.836;10.476;2024-03-29T06:23:22;99362.34;;;4.86;78.07
84990;BME280;75307;53.836;10.476;2024-03-29T06:25:23;99367.56;;;4.86;77.89
84990;BME280;75307;53.836;10.476;2024-03-29T06:27:25;99363.09;;;4.90;77.91
84990;BME280;75307;53.836;10.476;2024-03-29T06:29:27;99363.66;;;5.00;77.48
84990;BME280;75307;53.836;10.476;2024-03-29T06:31:28;99367.81;;;5.05;77.31
84990;BME280;75307;53.836;10.476;2024-03-29T06:33:30;99365.13;;;5.08;77.95
84990;BME280;75307;53.836;10.476;2024-03-29T06:35:32;99368.44;;;5.12;77.20
84990;BME280;75307;53.836;10.476;2024-03-29T06:37:34;99354.56;;;5.13;77.71
84990;BME280;75307;53.836;10.476;2024-03-29T06:39:34;99368.22;;;5.20;77.16
84990;BME280;75307;53.836;10.476;2024-03-29T06:41:36;99374.91;;;5.27;76.94
84990;BME280;75307;53.836;10.476;2024-03-29T06:43:41;99382.56;;;5.31;77.28
84990;BME280;75307;53.836;10.476;2024-03-29T06:45:45;99383.25;;;5.36;77.04
84990;BME280;75307;53.836;10.476;2024-03-29T06:47:47;99379.81;;;5.36;77.14
84990;BME280;75307;53.836;10.476;2024-03-29T06:49:48;99386.59;;;5.42;76.96
84990;BME280;75307;53.836;10.476;2024-03-29T06:51:50;99376.94;;;5.44;76.59
84990;BME280;75307;53.836;10.476;2024-03-29T06:53:52;99381.84;;;5.53;76.72
84990;BME280;75307;53.836;10.476;2024-03-29T06:55:54;99387.84;;;5.55;77.04
84990;BME280;75307;53.836;10.476;2024-03-29T06:57:55;99375.72;;;5.54;76.34
84990;BME280;75307;53.836;10.476;2024-03-29T06:59:56;99379.84;;;5.61;76.91
84990;BME280;75307;53.836;10.476;2024-03-29T07:01:59;99378.84;;;5.63;76.43
84990;BME280;75307;53.836;10.476;2024-03-29T07:04:01;99379.53;;;5.69;76.04
84990;BME280;75307;53.836;10.476;2024-03-29T07:06:03;99378.59;;;5.71;76.40
84990;BME280;75307;53.836;10.476;2024-03-29T07:08:04;99386.19;;;5.77;75.76
84990;BME280;75307;53.836;10.476;2024-03-29T07:10:07;99378.13;;;5.85;75.90
84990;BME280;75307;53.836;10.476;2024-03-29T07:12:08;99374.53;;;5.87;76.00
84990;BME280;75307;53.836;10.476;2024-03-29T07:14:09;99370.06;;;5.91;75.44
84990;BME280;75307;53.836;10.476;2024-03-29T07:16:11;99376.91;;;5.95;75.46
84990;BME280;75307;53.836;10.476;2024-03-29T07:18:14;99377.63;;;5.99;75.48
84990;BME280;75307;53.836;10.476;2024-03-29T07:20:16;99387.09;;;6.01;75.68
84990;BME280;75307;53.836;10.476;2024-03-29T07:22:17;99394.78;;;6.06;75.66
84990;BME280;75307;53.836;10.476;2024-03-29T07:24:20;99396.47;;;6.07;75.35
84990;BME280;75307;53.836;10.476;2024-03-29T07:26:21;99391.00;;;6.13;75.33
84990;BME280;75307;53.836;10.476;2024-03-29T07:28:22;99400.31;;;6.20;74.93
84990;BME280;75307;53.836;10.476;2024-03-29T07:30:25;99405.44;;;6.23;74.43
84990;BME280;75307;53.836;10.476;2024-03-29T07:32:26;99410.44;;;6.29;74.82
84990;BME280;75307;53.836;10.476;2024-03-29T07:34:29;99409.41;;;6.33;75.06
84990;BME280;75307;53.836;10.476;2024-03-29T07:36:31;99403.22;;;6.36;74.48
84990;BME280;75307;53.836;10.476;2024-03-29T07:38:36;99404.13;;;6.35;74.55
84990;BME280;75307;53.836;10.476;2024-03-29T07:40:38;99399.59;;;6.40;74.42
84990;BME280;75307;53.836;10.476;2024-03-29T07:42:40;99397.81;;;6.40;74.60
84990;BME280;75307;53.836;10.476;2024-03-29T07:44:41;99403.84;;;6.42;74.45
84990;BME280;75307;53.836;10.476;2024-03-29T07:46:43;99414.13;;;6.47;74.49
84990;BME280;75307;53.836;10.476;2024-03-29T07:48:47;99408.72;;;6.52;74.37
84990;BME280;75307;53.836;10.476;2024-03-29T07:50:49;99411.19;;;6.55;74.11
84990;BME280;75307;53.836;10.476;2024-03-29T07:52:50;99403.94;;;6.63;73.75
84990;BME280;75307;53.836;10.476;2024-03-29T07:54:52;99420.28;;;6.68;73.72
84990;BME280;75307;53.836;10.476;2024-03-29T07:56:54;99435.69;;;6.74;73.66
84990;BME280;75307;53.836;10.476;2024-03-29T07:58:55;99445.22;;;6.75;73.52
84990;BME280;75307;53.836;10.476;2024-03-29T08:00:57;99438.97;;;6.79;73.81
84990;BME280;75307;53.836;10.476;2024-03-29T08:02:58;99431.88;;;6.83;73.45
84990;BME280;75307;53.836;10.476;2024-03-29T08:04:59;99427.25;;;6.89;73.69
84990;BME280;75307;53.836;10.476;2024-03-29T08:07:03;99432.19;;;6.97;73.22
84990;BME280;75307;53.836;10.476;2024-03-29T08:09:05;99436.28;;;7.04;73.26
84990;BME280;75307;53.836;10.476;2024-03-29T08:11:06;99444.59;;;7.14;73.00
84990;BME280;75307;53.836;10.476;2024-03-29T08:13:10;99446.78;;;7.25;72.67
84990;BME280;75307;53.836;10.476;2024-03-29T08:15:14;99453.41;;;7.33;72.37
84990;BME280;75307;53.836;10.476;2024-03-29T08:17:18;99485.28;;;7.41;72.10
84990;BME280;75307;53.836;10.476;2024-03-29T08:19:20;99448.63;;;7.43;72.00
84990;BME280;75307;53.836;10.476;2024-03-29T08:21:22;99453.22;;;7.58;71.66
84990;BME280;75307;53.836;10.476;2024-03-29T08:23:25;99458.31;;;7.61;71.81
84990;BME280;75307;53.836;10.476;2024-03-29T08:25:27;99464.16;;;7.68;71.76
84990;BME280;75307;53.836;10.476;2024-03-29T08:27:29;99452.50;;;7.75;71.36
84990;BME280;75307;53.836;10.476;2024-03-29T08:29:29;99471.47;;;7.80;71.11
84990;BME280;75307;53.836;10.476;2024-03-29T08:31:31;99471.28;;;7.85;71.34
84990;BME280;75307;53.836;10.476;2024-03-29T08:33:33;99472.78;;;7.90;70.98
84990;BME280;75307;53.836;10.476;2024-03-29T08:35:35;99423.06;;;7.70;70.86
84990;BME280;75307;53.836;10.476;2024-03-29T08:37:35;99471.28;;;8.05;70.58
84990;BME280;75307;53.836;10.476;2024-03-29T08:39:38;99462.31;;;8.11;70.66
84990;BME280;75307;53.836;10.476;2024-03-29T08:41:40;99462.69;;;8.22;70.42
84990;BME280;75307;53.836;10.476;2024-03-29T08:43:41;99465.75;;;8.32;70.00
84990;BME280;75307;53.836;10.476;2024-03-29T08:45:43;99455.75;;;8.41;70.07
84990;BME280;75307;53.836;10.476;2024-03-29T08:47:45;99451.88;;;8.50;69.32
84990;BME280;75307;53.836;10.476;2024-03-29T08:49:45;99444.56;;;8.57;69.51
84990;BME280;75307;53.836;10.476;2024-03-29T08:51:47;99449.59;;;8.61;69.23
84990;BME280;75307;53.836;10.476;2024-03-29T08:53:49;99456.47;;;8.64;69.42
84990;BME280;75307;53.836;10.476;2024-03-29T08:55:52;99443.50;;;8.61;69.99
84990;BME280;75307;53.836;10.476;2024-03-29T08:57:53;99437.28;;;8.63;69.08
84990;BME280;75307;53.836;10.476;2024-03-29T08:59:54;99453.84;;;8.64;69.75
84990;BME280;75307;53.836;10.476;2024-03-29T09:02:03;99452.28;;;8.60;70.03
84990;BME280;75307;53.836;10.476;2024-03-29T09:04:05;99444.56;;;8.57;69.74
84990;BME280;75307;53.836;10.476;2024-03-29T09:06:10;99438.56;;;8.55;70.02
84990;BME280;75307;53.836;10.476;2024-03-29T09:08:12;99448.25;;;8.53;69.48
84990;BME280;75307;53.836;10.476;2024-03-29T09:10:14;99437.84;;;8.51;69.61
84990;BME280;75307;53.836;10.476;2024-03-29T09:12:17;99430.91;;;8.50;69.89
84990;BME280;75307;53.836;10.476;2024-03-29T09:14:19;99417.31;;;8.42;70.03
84990;BME280;75307;53.836;10.476;2024-03-29T09:16:21;99437.00;;;8.51;69.81
84990;BME280;75307;53.836;10.476;2024-03-29T09:18:21;99447.34;;;8.54;70.20
84990;BME280;75307;53.836;10.476;2024-03-29T09:20:26;99436.88;;;8.54;69.88
84990;BME280;75307;53.836;10.476;2024-03-29T09:22:28;99451.88;;;8.50;69.93
84990;BME280;75307;53.836;10.476;2024-03-29T09:24:28;99449.44;;;8.45;70.06
84990;BME280;75307;53.836;10.476;2024-03-29T09:26:32;99469.69;;;8.42;69.87
84990;BME280;75307;53.836;10.476;2024-03-29T09:28:35;99449.78;;;8.38;70.15
84990;BME280;75307;53.836;10.476;2024-03-29T09:30:37;99442.84;;;8.37;70.10
84990;BME280;75307;53.836;10.476;2024-03-29T09:32:39;99433.19;;;8.39;70.33
84990;BME280;75307;53.836;10.476;2024-03-29T09:34:41;99427.88;;;8.40;70.36
84990;BME280;75307;53.836;10.476;2024-03-29T09:36:41;99426.94;;;8.41;70.33
84990;BME280;75307;53.836;10.476;2024-03-29T09:38:43;99425.16;;;8.42;70.32
84990;BME280;75307;53.836;10.476;2024-03-29T09:40:44;99426.03;;;8.42;70.32
84990;BME280;75307;53.836;10.476;2024-03-29T09:42:46;99434.72;;;8.43;70.17
84990;BME280;75307;53.836;10.476;2024-03-29T09:44:50;99416.47;;;8.41;70.60
84990;BME280;75307;53.836;10.476;2024-03-29T09:46:53;99405.06;;;8.42;70.60
84990;BME280;75307;53.836;10.476;2024-03-29T09:48:55;99411.22;;;8.41;71.07
84990;BME280;75307;53.836;10.476;2024-03-29T09:50:57;99407.00;;;8.39;70.86
84990;BME280;75307;53.836;10.476;2024-03-29T09:53:00;99399.19;;;8.37;71.31
84990;BME280;75307;53.836;10.476;2024-03-29T09:55:02;99399.38;;;8.33;71.16
84990;BME280;75307;53.836;10.476;2024-03-29T09:57:05;99396.84;;;8.31;71.07
84990;BME280;75307;53.836;10.476;2024-03-29T09:59:05;99398.53;;;8.32;71.30
84990;BME280;75307;53.836;10.476;2024-03-29T10:01:08;99401.31;;;8.29;71.71
84990;BME280;75307;53.836;10.476;2024-03-29T10:03:10;99396.13;;;8.28;71.85
84990;BME280;75307;53.836;10.476;2024-03-29T10:05:13;99366.41;;;8.10;71.70
84990;BME280;75307;53.836;10.476;2024-03-29T10:07:16;99389.41;;;8.22;72.32
84990;BME280;75307;53.836;10.476;2024-03-29T10:09:18;99392.13;;;8.19;72.14
84990;BME280;75307;53.836;10.476;2024-03-29T10:11:19;99388.00;;;8.15;72.34
84990;BME280;75307;53.836;10.476;2024-03-29T10:13:21;99380.34;;;8.10;72.64
84990;BME280;75307;53.836;10.476;2024-03-29T10:15:23;99368.22;;;8.08;72.68
84990;BME280;75307;53.836;10.476;2024-03-29T10:17:29;99356.16;;;8.05;72.73
84990;BME280;75307;53.836;10.476;2024-03-29T10:19:30;99364.03;;;8.04;73.02
84990;BME280;75307;53.836;10.476;2024-03-29T10:21:32;99364.97;;;8.03;72.80
84990;BME280;75307;53.836;10.476;2024-03-29T10:23:34;99364.91;;;8.04;72.77
84990;BME280;75307;53.836;10.476;2024-03-29T10:25:35;99372.06;;;8.01;72.95
84990;BME280;75307;53.836;10.476;2024-03-29T10:27:38;99377.34;;;7.99;73.38
84990;BME280;75307;53.836;10.476;2024-03-29T10:29:40;99386.09;;;7.98;72.72
84990;BME280;75307;53.836;10.476;2024-03-29T10:31:42;99382.56;;;7.99;73.31
84990;BME280;75307;53.836;10.476;2024-03-29T10:33:45;99383.41;;;8.00;72.94
84990;BME280;75307;53.836;10.476;2024-03-29T10:35:47;99374.69;;;8.01;73.38
84990;BME280;75307;53.836;10.476;2024-03-29T10:37:49;99386.91;;;8.00;72.90
84990;BME280;75307;53.836;10.476;2024-03-29T10:39:50;99369.84;;;7.91;73.09
84990;BME280;75307;53.836;10.476;2024-03-29T10:41:51;99387.81;;;7.99;72.95
84990;BME280;75307;53.836;10.476;2024-03-29T10:43:53;99383.41;;;8.00;73.28
84990;BME280;75307;53.836;10.476;2024-03-29T10:45:59;99379.09;;;7.98;73.29